TimeCST,TemperatureF,Dew PointF,Humidity,Sea Level PressureIn,VisibilityMPH,Wind Direction,Wind SpeedMPH,Gust SpeedMPH,PrecipitationIn,Events,Conditions,WindDirDegrees,DateUTC
12:10 AM,57.2,51.8,82,29.91,10.0,SSE,15.0,24.2,N/A,,Overcast,160,2013-03-09 06:10:00
12:52 AM,57.9,53.1,84,29.88,9.0,SSE,15.0,24.2,N/A,,Overcast,160,2013-03-09 06:52:00
1:52 AM,59.0,52.0,78,29.88,10.0,South,12.7,-,N/A,,Overcast,170,2013-03-09 07:52:00
2:52 AM,57.9,54.0,87,29.86,5.0,South,13.8,25.3,0.00,Rain,Light Rain,170,2013-03-09 08:52:00
3:45 AM,57.2,53.6,88,29.83,7.0,SSE,18.4,-,0.00,,Overcast,160,2013-03-09 09:45:00
3:52 AM,57.9,54.0,87,29.82,7.0,SSE,18.4,25.3,0.00,,Overcast,160,2013-03-09 09:52:00
4:10 AM,57.2,53.6,88,29.84,5.0,South,17.3,27.6,N/A,,Overcast,170,2013-03-09 10:10:00
4:52 AM,57.0,54.0,89,29.83,3.0,South,15.0,-,0.00,Rain,Light Rain,170,2013-03-09 10:52:00
5:10 AM,57.2,53.6,88,29.84,2.5,SSE,15.0,-,0.00,Rain,Light Rain,160,2013-03-09 11:10:00
5:27 AM,55.4,53.6,94,29.83,2.5,SSE,17.3,23.0,0.00,Rain,Light Rain,160,2013-03-09 11:27:00
5:39 AM,55.4,53.6,94,29.82,3.0,SSE,18.4,-,0.00,,Overcast,150,2013-03-09 11:39:00
5:52 AM,55.9,54.0,93,29.81,3.0,SSE,16.1,-,0.00,,Overcast,160,2013-03-09 11:52:00
6:24 AM,55.4,53.6,94,29.82,2.5,SSE,18.4,26.5,0.00,Rain,Light Rain,150,2013-03-09 12:24:00
6:28 AM,55.4,53.6,94,29.82,3.0,SSE,20.7,-,N/A,Rain,Light Rain,150,2013-03-09 12:28:00
6:39 AM,55.4,53.6,94,29.81,2.0,SSE,17.3,-,0.00,Rain,Light Rain,150,2013-03-09 12:39:00
6:52 AM,55.9,54.0,93,29.79,3.0,SSE,19.6,-,0.00,,Overcast,150,2013-03-09 12:52:00
7:52 AM,55.9,55.0,97,29.79,2.5,SSE,19.6,-,0.00,,Overcast,150,2013-03-09 13:52:00
8:52 AM,57.0,55.0,93,29.77,2.5,SSE,20.7,32.2,0.00,Rain,Light Rain,150,2013-03-09 14:52:00
9:07 AM,57.2,55.4,94,29.77,3.0,SSE,21.9,32.2,0.00,,Overcast,160,2013-03-09 15:07:00
9:52 AM,57.9,55.9,93,29.75,6.0,SSE,15.0,27.6,0.00,,Overcast,160,2013-03-09 15:52:00
10:52 AM,59.0,55.9,90,29.73,8.0,SSE,21.9,28.8,N/A,,Overcast,160,2013-03-09 16:52:00
11:52 AM,60.1,57.0,90,29.71,7.0,South,19.6,25.3,N/A,,Overcast,170,2013-03-09 17:52:00
12:52 PM,61.0,57.9,90,29.67,8.0,SSE,18.4,26.5,0.00,,Overcast,160,2013-03-09 18:52:00
1:52 PM,61.0,57.9,90,29.65,8.0,SSE,13.8,-,0.01,Rain,Light Rain,160,2013-03-09 19:52:00
2:08 PM,60.8,57.2,88,29.65,9.0,SSE,18.4,-,0.00,Rain,Light Rain,150,2013-03-09 20:08:00
2:34 PM,60.8,59.0,94,29.66,1.5,South,15.0,-,0.01,Rain-Thunderstorm,Thunderstorms and Rain,190,2013-03-09 20:34:00
2:41 PM,59.0,55.4,88,29.66,1.0,SSW,17.3,24.2,0.27,Rain-Thunderstorm,Heavy Thunderstorms and Rain,200,2013-03-09 20:41:00
2:52 PM,59.0,55.0,87,29.64,5.0,SSW,9.2,-,0.30,Rain-Thunderstorm,Light Thunderstorms and Rain,210,2013-03-09 20:52:00
2:56 PM,60.8,55.4,82,29.66,10.0,SSW,9.2,-,0.00,,Overcast,210,2013-03-09 20:56:00
3:52 PM,60.1,55.0,83,29.63,10.0,SSE,9.2,-,0.00,,Overcast,160,2013-03-09 21:52:00
4:52 PM,57.9,52.0,81,29.62,10.0,SSE,8.1,-,0.00,,Mostly Cloudy,150,2013-03-09 22:52:00
5:52 PM,57.0,52.0,83,29.63,10.0,South,6.9,-,0.00,,Overcast,170,2013-03-09 23:52:00
6:52 PM,54.0,51.1,90,29.65,10.0,South,6.9,-,N/A,,Scattered Clouds,170,2013-03-10 00:52:00
7:52 PM,52.0,50.0,93,29.67,9.0,South,5.8,-,N/A,,Mostly Cloudy,170,2013-03-10 01:52:00
8:52 PM,48.0,48.0,100,29.66,3.0,SE,6.9,-,N/A,,Scattered Clouds,140,2013-03-10 02:52:00
9:52 PM,52.0,50.0,93,29.66,4.0,Calm,Calm,-,N/A,,Scattered Clouds,0,2013-03-10 03:52:00
10:52 PM,51.1,50.0,96,29.68,7.0,SE,4.6,-,N/A,,Mostly Cloudy,130,2013-03-10 04:52:00
11:52 PM,55.0,44.1,67,29.72,10.0,SSW,12.7,-,N/A,,Overcast,210,2013-03-10 05:52:00